Time;durP1;ratioP1;P1;durP2;ratioP2;P2;SDS_P1;SDS_P2;PMS_P1;PMS_P2;Temp;Humidity;BMP_temperature;BMP_pressure;BME280_temperature;BME280_humidity;BME280_pressure;Samples;Min_cycle;Max_cycle;Signal;HPM_P1;HPM_P2
2021/03/06 00:01:27;;;;;;;14.95;7.15;;;;;;;;;;5083094;28;20012;-66
2021/03/06 00:03:52;;;;;;;12.02;6.43;;;;;;;;;;5089041;28;20472;-67
2021/03/06 00:06:17;;;;;;;14.10;6.47;;;;;;;;;;5079704;28;20435;-66
2021/03/06 00:08:42;;;;;;;11.10;5.43;;;;;;;;;;5073197;28;20020;-66
2021/03/06 00:11:07;;;;;;;12.15;5.93;;;;;;;;;;5079015;28;20486;-67
2021/03/06 00:13:36;;;;;;;11.07;6.07;;;;;;;;;;5082072;28;20024;-67
2021/03/06 00:16:01;;;;;;;16.00;6.25;;;;;;;;;;5077882;28;20524;-67
2021/03/06 00:18:27;;;;;;;10.80;5.72;;;;;;;;;;5076507;28;20021;-67
2021/03/06 00:20:52;;;;;;;13.98;6.20;;;;;;;;;;5079016;28;20024;-70
2021/03/06 00:23:18;;;;;;;14.52;6.70;;;;;;;;;;5089947;28;20411;-67
2021/03/06 00:25:43;;;;;;;14.88;7.18;;;;;;;;;;5087796;28;20549;-67
2021/03/06 00:28:09;;;;;;;26.00;7.30;;;;;;;;;;5072400;28;20055;-67
2021/03/06 00:30:34;;;;;;;17.90;7.88;;;;;;;;;;5077052;28;20028;-67
2021/03/06 00:33:00;;;;;;;18.13;8.30;;;;;;;;;;5086527;28;20027;-65
2021/03/06 00:35:25;;;;;;;18.00;9.07;;;;;;;;;;5087014;28;20021;-65
2021/03/06 00:37:51;;;;;;;16.67;7.93;;;;;;;;;;5086135;28;20044;-65
2021/03/06 00:40:16;;;;;;;16.33;8.13;;;;;;;;;;5077603;28;20023;-65
2021/03/06 00:42:41;;;;;;;19.75;9.38;;;;;;;;;;5086339;28;20096;-65
2021/03/06 00:45:07;;;;;;;17.42;8.73;;;;;;;;;;5086962;28;20039;-65
2021/03/06 00:47:32;;;;;;;17.52;8.20;;;;;;;;;;5087317;28;20021;-65
2021/03/06 00:49:58;;;;;;;24.23;8.68;;;;;;;;;;5071316;28;20066;-65
2021/03/06 00:52:24;;;;;;;25.52;9.32;;;;;;;;;;5082948;28;20564;-65
2021/03/06 00:54:49;;;;;;;22.52;9.15;;;;;;;;;;5089631;28;20044;-65
2021/03/06 00:57:14;;;;;;;16.75;8.57;;;;;;;;;;5083668;28;20067;-65
2021/03/06 00:59:40;;;;;;;19.67;10.25;;;;;;;;;;5072543;28;20021;-65
2021/03/06 01:02:05;;;;;;;18.67;8.77;;;;;;;;;;5072571;28;20380;-65
2021/03/06 01:04:30;;;;;;;22.83;9.45;;;;;;;;;;5075575;28;20027;-65
2021/03/06 01:06:55;;;;;;;18.15;8.88;;;;;;;;;;5089850;28;20403;-65
2021/03/06 01:09:21;;;;;;;23.35;9.27;;;;;;;;;;5086287;28;20031;-65
2021/03/06 01:11:46;;;;;;;19.73;9.25;;;;;;;;;;5088141;28;20479;-65
2021/03/06 01:14:11;;;;;;;19.20;9.40;;;;;;;;;;5086788;28;20019;-65
2021/03/06 01:16:36;;;;;;;22.98;10.95;;;;;;;;;;5075858;28;20362;-65
2021/03/06 01:19:01;;;;;;;22.17;8.93;;;;;;;;;;5078224;28;20020;-65
2021/03/06 01:21:27;;;;;;;18.55;9.05;;;;;;;;;;5086961;28;20032;-66
2021/03/06 01:23:52;;;;;;;21.65;8.93;;;;;;;;;;5095850;28;20422;-65
2021/03/06 01:26:17;;;;;;;17.80;9.40;;;;;;;;;;5083729;28;20501;-65
2021/03/06 01:28:42;;;;;;;17.05;9.90;;;;;;;;;;5089656;28;20019;-65
2021/03/06 01:31:07;;;;;;;14.98;8.15;;;;;;;;;;5091462;28;20109;-65
2021/03/06 01:33:33;;;;;;;22.10;8.23;;;;;;;;;;5090506;28;20028;-66
2021/03/06 01:35:58;;;;;;;23.13;8.40;;;;;;;;;;5081052;28;20059;-66
2021/03/06 01:38:23;;;;;;;17.67;8.02;;;;;;;;;;5091723;28;20030;-65
2021/03/06 01:40:48;;;;;;;21.73;8.35;;;;;;;;;;5094956;28;20078;-65
2021/03/06 01:43:14;;;;;;;21.17;9.05;;;;;;;;;;5090483;28;20031;-65
2021/03/06 01:45:39;;;;;;;18.55;8.55;;;;;;;;;;5095527;28;20035;-65
2021/03/06 01:48:05;;;;;;;17.45;7.82;;;;;;;;;;5080440;28;20012;-65
2021/03/06 01:50:37;;;;;;;17.23;8.73;;;;;;;;;;5081533;28;20051;-65
2021/03/06 01:53:03;;;;;;;17.35;7.68;;;;;;;;;;5076777;28;20017;-65
2021/03/06 01:55:30;;;;;;;21.95;8.35;;;;;;;;;;5088903;28;20493;-65
2021/03/06 01:57:55;;;;;;;25.50;8.25;;;;;;;;;;5077470;28;20500;-65
2021/03/06 02:00:21;;;;;;;16.80;7.63;;;;;;;;;;5078567;28;20016;-65
2021/03/06 02:02:47;;;;;;;16.00;7.05;;;;;;;;;;5076511;28;20024;-65
2021/03/06 02:05:12;;;;;;;15.43;7.13;;;;;;;;;;5081864;28;20124;-65
2021/03/06 02:07:38;;;;;;;15.77;7.15;;;;;;;;;;5089777;28;20488;-65
2021/03/06 02:10:03;;;;;;;14.13;6.93;;;;;;;;;;5089853;28;20024;-66
2021/03/06 02:12:43;;;;;;;13.73;6.93;;;;;;;;;;5086272;28;20048;-65
2021/03/06 02:15:09;;;;;;;;;;;;;;;;;;5093149;28;20012;-65
2021/03/06 02:17:37;;;;;;;10.70;5.63;;;;;;;;;;5078753;28;19908;-66
2021/03/06 02:20:24;;;;;;;12.38;5.55;;;;;;;;;;5083989;28;20263;-65
2021/03/06 02:23:08;;;;;;;12.38;6.60;;;;;;;;;;5076160;28;20031;-66
2021/03/06 02:25:33;;;;;;;14.00;6.05;;;;;;;;;;5076054;28;20043;-65
2021/03/06 02:28:13;;;;;;;13.00;5.90;;;;;;;;;;5083913;28;20512;-66
2021/03/06 02:30:39;;;;;;;9.80;5.88;;;;;;;;;;5079227;28;20028;-65
2021/03/06 02:33:05;;;;;;;14.15;6.10;;;;;;;;;;5091143;28;20020;-65
2021/03/06 02:35:32;;;;;;;17.35;6.63;;;;;;;;;;5091519;28;20089;-65
2021/03/06 02:38:07;;;;;;;14.02;6.35;;;;;;;;;;5089799;28;20501;-65
2021/03/06 02:40:32;;;;;;;17.85;7.15;;;;;;;;;;5108232;22;20072;-62
2021/03/06 02:42:58;;;;;;;17.08;6.88;;;;;;;;;;5091484;28;20438;-64
2021/03/06 02:45:25;;;;;;;13.90;6.70;;;;;;;;;;5089890;28;20039;-63
2021/03/06 02:47:50;;;;;;;11.68;6.18;;;;;;;;;;5091372;28;20434;-63
2021/03/06 02:50:15;;;;;;;14.50;6.65;;;;;;;;;;5086763;28;20024;-64
2021/03/06 02:52:40;;;;;;;12.88;6.82;;;;;;;;;;5072366;28;20047;-63
2021/03/06 02:55:07;;;;;;;20.23;7.70;;;;;;;;;;5076877;28;20031;-62
2021/03/06 02:57:36;;;;;;;14.27;6.75;;;;;;;;;;5069966;28;20080;-63
2021/03/06 03:00:16;;;;;;;14.60;6.82;;;;;;;;;;5069929;28;20388;-63
2021/03/06 03:02:56;;;;;;;14.95;6.93;;;;;;;;;;5069866;28;20118;-64
2021/03/06 03:05:29;;;;;;;13.65;7.03;;;;;;;;;;5061690;28;20066;-64
2021/03/06 03:08:04;;;;;;;14.35;7.20;;;;;;;;;;5070896;28;20481;-64
2021/03/06 03:10:33;;;;;;;18.35;6.20;;;;;;;;;;5071203;28;20086;-63
2021/03/06 03:13:07;;;;;;;11.88;6.03;;;;;;;;;;5070204;28;20376;-64
2021/03/06 03:15:37;;;;;;;15.48;6.78;;;;;;;;;;5070828;28;20545;-63
2021/03/06 03:18:04;;;;;;;13.90;6.43;;;;;;;;;;5078980;28;20508;-63
2021/03/06 03:20:56;;;;;;;9.30;5.82;;;;;;;;;;5071660;28;20032;-64
2021/03/06 03:23:39;;;;;;;11.38;5.38;;;;;;;;;;5066647;28;20028;-63
2021/03/06 03:26:06;;;;;;;15.35;5.65;;;;;;;;;;5063736;28;20031;-64
2021/03/06 03:28:32;;;;;;;15.35;6.28;;;;;;;;;;5071068;28;20028;-64
2021/03/06 03:30:58;;;;;;;13.43;5.95;;;;;;;;;;5071125;28;20107;-63
2021/03/06 03:33:24;;;;;;;13.57;5.93;;;;;;;;;;5052996;28;20485;-63
2021/03/06 03:35:49;;;;;;;14.90;6.25;;;;;;;;;;5071324;28;20535;-64
2021/03/06 03:38:15;;;;;;;13.80;6.97;;;;;;;;;;5070945;28;20040;-68
2021/03/06 03:40:40;;;;;;;15.98;5.63;;;;;;;;;;5070605;28;20029;-63
2021/03/06 03:43:06;;;;;;;16.35;5.88;;;;;;;;;;5070386;28;20050;-64
2021/03/06 03:45:31;;;;;;;13.60;6.65;;;;;;;;;;5071564;28;20044;-65
2021/03/06 03:47:58;;;;;;;11.82;7.00;;;;;;;;;;5069473;28;20560;-63
2021/03/06 03:50:24;;;;;;;12.05;6.00;;;;;;;;;;5069506;28;20063;-66
2021/03/06 03:52:50;;;;;;;10.02;6.05;;;;;;;;;;5070558;28;20287;-65
2021/03/06 03:55:16;;;;;;;11.47;6.17;;;;;;;;;;5070751;28;20067;-65
2021/03/06 03:57:43;;;;;;;13.88;6.10;;;;;;;;;;5070707;28;20021;-66
2021/03/06 04:00:09;;;;;;;12.98;6.03;;;;;;;;;;5070608;28;20019;-64
2021/03/06 04:02:35;;;;;;;9.23;5.68;;;;;;;;;;5070578;28;20028;-66
2021/03/06 04:05:00;;;;;;;9.95;5.53;;;;;;;;;;5059744;28;20021;-64
2021/03/06 04:07:26;;;;;;;12.43;5.95;;;;;;;;;;5070484;28;20424;-66
2021/03/06 04:09:51;;;;;;;10.80;5.93;;;;;;;;;;5070549;28;20016;-64
2021/03/06 04:12:16;;;;;;;11.80;6.10;;;;;;;;;;5071104;28;20116;-64
2021/03/06 04:14:41;;;;;;;10.98;5.85;;;;;;;;;;5080101;28;20097;-65
2021/03/06 04:17:07;;;;;;;11.20;5.72;;;;;;;;;;5052988;28;20025;-63
2021/03/06 04:19:32;;;;;;;13.98;5.70;;;;;;;;;;5070128;28;20017;-66
2021/03/06 04:21:57;;;;;;;13.43;6.18;;;;;;;;;;5069870;28;20117;-64
2021/03/06 04:24:22;;;;;;;15.35;5.88;;;;;;;;;;5070032;28;20016;-66
2021/03/06 04:26:49;;;;;;;15.27;5.75;;;;;;;;;;5069749;28;20538;-64
2021/03/06 04:29:15;;;;;;;13.43;5.72;;;;;;;;;;5068850;28;20066;-65
2021/03/06 04:31:40;;;;;;;13.93;6.07;;;;;;;;;;5070040;28;20024;-64
2021/03/06 04:34:05;;;;;;;7.85;5.30;;;;;;;;;;5068706;28;20024;-64
2021/03/06 04:36:30;;;;;;;14.02;6.15;;;;;;;;;;5068429;28;20024;-65
2021/03/06 04:38:56;;;;;;;13.52;6.10;;;;;;;;;;5070372;28;20164;-64
2021/03/06 04:41:21;;;;;;;12.25;5.70;;;;;;;;;;5070114;28;20390;-65
2021/03/06 04:43:46;;;;;;;13.57;6.00;;;;;;;;;;5070470;28;20464;-65
2021/03/06 04:46:11;;;;;;;12.07;6.13;;;;;;;;;;5068806;28;20028;-64
2021/03/06 04:48:36;;;;;;;12.10;6.07;;;;;;;;;;5069772;28;20062;-64
2021/03/06 04:51:02;;;;;;;12.27;5.55;;;;;;;;;;5069628;28;20511;-64
2021/03/06 04:53:28;;;;;;;12.40;5.88;;;;;;;;;;5069556;28;20040;-65
2021/03/06 04:55:53;;;;;;;10.98;5.50;;;;;;;;;;5066427;28;20024;-65
2021/03/06 04:58:18;;;;;;;13.57;5.95;;;;;;;;;;5073668;28;20020;-64
2021/03/06 05:00:43;;;;;;;13.68;5.72;;;;;;;;;;5077197;28;20107;-65
2021/03/06 05:03:08;;;;;;;17.33;6.60;;;;;;;;;;5084785;28;20019;-64
2021/03/06 05:05:33;;;;;;;11.98;5.72;;;;;;;;;;5070949;28;20024;-65
2021/03/06 05:07:59;;;;;;;17.00;5.93;;;;;;;;;;5070006;28;20024;-64
2021/03/06 05:10:24;;;;;;;12.38;6.00;;;;;;;;;;5069811;28;20021;-67
2021/03/06 05:12:50;;;;;;;15.13;6.03;;;;;;;;;;5067377;28;20512;-64
2021/03/06 05:15:15;;;;;;;12.05;5.88;;;;;;;;;;5067305;28;20108;-64
2021/03/06 05:17:40;;;;;;;12.25;5.80;;;;;;;;;;5068195;28;20055;-66
2021/03/06 05:20:06;;;;;;;10.25;5.85;;;;;;;;;;5070125;28;20016;-64
2021/03/06 05:22:31;;;;;;;11.63;6.10;;;;;;;;;;5076210;28;20028;-64
2021/03/06 05:24:56;;;;;;;9.55;5.47;;;;;;;;;;5059548;28;20013;-65
2021/03/06 05:27:21;;;;;;;11.70;6.10;;;;;;;;;;5067881;28;20544;-65
2021/03/06 05:29:46;;;;;;;14.40;6.70;;;;;;;;;;5068363;28;20091;-65
2021/03/06 05:32:12;;;;;;;12.80;5.53;;;;;;;;;;5068170;28;20078;-65
2021/03/06 05:34:37;;;;;;;13.52;6.57;;;;;;;;;;5069705;28;20097;-65
2021/03/06 05:37:02;;;;;;;12.88;5.45;;;;;;;;;;5069528;28;20090;-64
2021/03/06 05:39:28;;;;;;;15.55;6.03;;;;;;;;;;5069563;28;20017;-64
2021/03/06 05:41:53;;;;;;;23.00;7.90;;;;;;;;;;5068049;28;20538;-65
2021/03/06 05:44:19;;;;;;;23.80;7.53;;;;;;;;;;5068916;28;20043;-66
2021/03/06 05:46:44;;;;;;;18.08;6.93;;;;;;;;;;5069049;28;20078;-63
2021/03/06 05:49:09;;;;;;;13.93;6.38;;;;;;;;;;5070389;28;20012;-65
2021/03/06 05:51:36;;;;;;;14.93;7.15;;;;;;;;;;5067971;28;20032;-63
2021/03/06 05:54:09;;;;;;;17.33;7.40;;;;;;;;;;5068969;28;20235;-63
2021/03/06 05:56:36;;;;;;;20.67;7.78;;;;;;;;;;5072172;28;20024;-64
2021/03/06 05:59:03;;;;;;;17.75;8.43;;;;;;;;;;5069069;28;20098;-66
2021/03/06 06:01:29;;;;;;;21.58;7.15;;;;;;;;;;5067198;28;20413;-64
2021/03/06 06:03:56;;;;;;;16.27;6.68;;;;;;;;;;5069065;28;20111;-64
2021/03/06 06:06:21;;;;;;;18.85;7.65;;;;;;;;;;5072466;28;20012;-64
2021/03/06 06:08:46;;;;;;;18.08;7.13;;;;;;;;;;5073416;28;20050;-65
2021/03/06 06:11:12;;;;;;;15.35;7.20;;;;;;;;;;5072013;28;20020;-65
2021/03/06 06:13:37;;;;;;;17.77;6.30;;;;;;;;;;5072493;28;20077;-64
2021/03/06 06:16:02;;;;;;;12.18;6.05;;;;;;;;;;5072534;28;20028;-64
2021/03/06 06:18:27;;;;;;;13.10;6.75;;;;;;;;;;5073264;28;20027;-64
2021/03/06 06:20:54;;;;;;;19.63;6.03;;;;;;;;;;5071890;28;20066;-65
2021/03/06 06:23:19;;;;;;;14.85;6.40;;;;;;;;;;5072700;28;20198;-64
2021/03/06 06:25:44;;;;;;;10.43;5.65;;;;;;;;;;5071923;28;20031;-65
2021/03/06 06:28:09;;;;;;;11.60;6.03;;;;;;;;;;5072935;28;20024;-64
2021/03/06 06:30:35;;;;;;;14.00;6.68;;;;;;;;;;5072314;28;20495;-66
2021/03/06 06:33:00;;;;;;;14.48;5.28;;;;;;;;;;5072196;28;20484;-64
2021/03/06 06:35:25;;;;;;;10.85;5.55;;;;;;;;;;5072616;28;20028;-65
2021/03/06 06:38:01;;;;;;;12.32;5.43;;;;;;;;;;5072213;28;20024;-65
2021/03/06 06:40:28;;;;;;;12.63;5.40;;;;;;;;;;5071326;28;20062;-64
2021/03/06 06:42:53;;;;;;;16.65;6.53;;;;;;;;;;5072649;28;20066;-65
2021/03/06 06:45:19;;;;;;;8.23;5.07;;;;;;;;;;5072918;28;20012;-64
2021/03/06 06:47:45;;;;;;;11.98;5.63;;;;;;;;;;5072502;28;20012;-65
2021/03/06 06:50:11;;;;;;;11.20;5.15;;;;;;;;;;5071910;28;20445;-64
2021/03/06 06:52:37;;;;;;;10.45;5.13;;;;;;;;;;5072116;28;20095;-64
2021/03/06 06:55:03;;;;;;;12.00;5.20;;;;;;;;;;5072357;28;20020;-64
2021/03/06 06:57:29;;;;;;;11.27;4.38;;;;;;;;;;5072029;28;20075;-64
2021/03/06 07:00:07;;;;;;;10.23;4.93;;;;;;;;;;5066324;28;20045;-64
2021/03/06 07:02:33;;;;;;;9.60;4.85;;;;;;;;;;5071786;28;20024;-65
2021/03/06 07:05:00;;;;;;;13.45;4.50;;;;;;;;;;5072261;28;20028;-64
2021/03/06 07:07:26;;;;;;;11.70;4.45;;;;;;;;;;5071608;28;20059;-65
2021/03/06 07:09:59;;;;;;;9.07;4.70;;;;;;;;;;5066370;28;20349;-65
2021/03/06 07:12:29;;;;;;;7.68;4.07;;;;;;;;;;5070638;28;20183;-64
2021/03/06 07:14:54;;;;;;;6.25;4.05;;;;;;;;;;5072099;28;20017;-64
2021/03/06 07:17:19;;;;;;;7.47;3.97;;;;;;;;;;5070988;28;20020;-65
2021/03/06 07:19:45;;;;;;;10.27;4.20;;;;;;;;;;5061145;28;20017;-66
2021/03/06 07:22:12;;;;;;;8.85;3.85;;;;;;;;;;5070551;28;20027;-68
2021/03/06 07:24:37;;;;;;;10.38;4.07;;;;;;;;;;5071196;28;20017;-65
2021/03/06 07:27:02;;;;;;;6.60;4.37;;;;;;;;;;5071329;28;20104;-65
2021/03/06 07:29:28;;;;;;;7.95;3.70;;;;;;;;;;5063433;28;20259;-64
2021/03/06 07:31:54;;;;;;;7.68;3.50;;;;;;;;;;5067697;28;20020;-66
2021/03/06 07:34:20;;;;;;;9.32;4.28;;;;;;;;;;5071444;28;20029;-63
2021/03/06 07:36:47;;;;;;;9.43;3.53;;;;;;;;;;5071324;28;20069;-65
2021/03/06 07:39:15;;;;;;;12.07;5.10;;;;;;;;;;5070718;28;20051;-63
2021/03/06 07:41:42;;;;;;;8.60;4.80;;;;;;;;;;5071552;28;20025;-63
2021/03/06 07:44:11;;;;;;;7.45;4.32;;;;;;;;;;5070819;28;20433;-65
2021/03/06 07:46:39;;;;;;;8.63;4.72;;;;;;;;;;5070615;28;20111;-65
2021/03/06 07:49:12;;;;;;;9.43;4.45;;;;;;;;;;5070299;28;20048;-64
2021/03/06 07:51:44;;;;;;;8.00;4.45;;;;;;;;;;5069501;28;20361;-63
2021/03/06 07:54:11;;;;;;;18.25;5.15;;;;;;;;;;5072248;28;20127;-62
2021/03/06 07:56:37;;;;;;;13.30;6.40;;;;;;;;;;5066382;28;20023;-63
2021/03/06 07:59:02;;;;;;;8.13;5.00;;;;;;;;;;5072719;28;20029;-64
2021/03/06 08:01:31;;;;;;;9.77;5.13;;;;;;;;;;5070017;28;20534;-65
2021/03/06 08:03:57;;;;;;;9.05;5.60;;;;;;;;;;5070466;28;20024;-67
2021/03/06 08:06:23;;;;;;;10.95;4.85;;;;;;;;;;5070315;28;20556;-64
2021/03/06 08:08:51;;;;;;;8.75;4.32;;;;;;;;;;5070529;28;20016;-64
2021/03/06 08:11:17;;;;;;;10.43;4.88;;;;;;;;;;5070567;28;20021;-64
2021/03/06 08:13:43;;;;;;;10.43;5.22;;;;;;;;;;5071981;28;20035;-65
2021/03/06 08:16:23;;;;;;;9.10;4.10;;;;;;;;;;5072698;28;20419;-65
2021/03/06 08:18:48;;;;;;;10.70;4.20;;;;;;;;;;5058931;28;20016;-64
2021/03/06 08:21:26;;;;;;;12.57;4.95;;;;;;;;;;5079862;28;20012;-66
2021/03/06 08:24:11;;;;;;;12.40;4.88;;;;;;;;;;5069313;28;20020;-66
2021/03/06 08:26:36;;;;;;;15.13;5.03;;;;;;;;;;5075894;28;20479;-65
2021/03/06 08:29:20;;;;;;;9.48;5.30;;;;;;;;;;5073706;28;20016;-64
2021/03/06 08:31:46;;;;;;;8.05;5.35;;;;;;;;;;5076207;28;20056;-63
2021/03/06 08:34:29;;;;;;;9.50;4.93;;;;;;;;;;5078032;28;20034;-65
2021/03/06 08:37:16;;;;;;;8.10;4.53;;;;;;;;;;5075680;28;20031;-65
2021/03/06 08:40:08;;;;;;;10.55;4.57;;;;;;;;;;5061834;28;20017;-65
2021/03/06 08:42:35;;;;;;;8.27;4.28;;;;;;;;;;5071805;22;20136;-67
2021/03/06 08:45:05;;;;;;;8.85;5.05;;;;;;;;;;5048004;28;20031;-67
2021/03/06 08:47:32;;;;;;;9.73;4.78;;;;;;;;;;5047891;28;20039;-67
2021/03/06 08:49:58;;;;;;;7.45;4.32;;;;;;;;;;5046963;28;20029;-67
2021/03/06 08:52:25;;;;;;;8.82;4.40;;;;;;;;;;5048116;28;20021;-67
2021/03/06 08:54:50;;;;;;;7.70;4.63;;;;;;;;;;5047707;28;20120;-67
2021/03/06 08:57:22;;;;;;;9.52;4.88;;;;;;;;;;5046224;28;20199;-68
2021/03/06 08:59:47;;;;;;;8.77;4.28;;;;;;;;;;5047100;28;20108;-68
2021/03/06 09:02:17;;;;;;;7.57;4.22;;;;;;;;;;5045727;28;20513;-68
2021/03/06 09:04:43;;;;;;;10.00;3.87;;;;;;;;;;5045873;28;20548;-67
2021/03/06 09:07:23;;;;;;;10.00;4.40;;;;;;;;;;5042203;28;20271;-67
2021/03/06 09:09:49;;;;;;;6.93;4.53;;;;;;;;;;5041728;28;20033;-67
2021/03/06 09:12:14;;;;;;;10.27;4.73;;;;;;;;;;5044033;28;20029;-67
2021/03/06 09:14:40;;;;;;;10.10;4.47;;;;;;;;;;5047717;28;20370;-67
2021/03/06 09:20:08;;;;;;;11.98;4.68;;;;;;;;;;5041885;28;20063;-67
2021/03/06 09:22:43;;;;;;;6.45;4.05;;;;;;;;;;5049721;28;20416;-67
2021/03/06 09:25:09;;;;;;;7.72;4.00;;;;;;;;;;5044460;28;20044;-67
2021/03/06 09:27:45;;;;;;;8.73;4.72;;;;;;;;;;5047153;28;20065;-67
2021/03/06 09:30:26;;;;;;;7.72;3.85;;;;;;;;;;5046682;28;20040;-66
2021/03/06 09:32:52;;;;;;;8.52;4.38;;;;;;;;;;5044943;28;20060;-66
2021/03/06 09:35:18;;;;;;;7.82;3.78;;;;;;;;;;5045694;28;20496;-66
2021/03/06 09:37:44;;;;;;;8.70;4.28;;;;;;;;;;5046518;28;20031;-66
2021/03/06 09:40:20;;;;;;;8.68;4.43;;;;;;;;;;5050294;28;20112;-66
2021/03/06 09:42:48;;;;;;;10.05;4.70;;;;;;;;;;5050126;28;20025;-66
2021/03/06 09:45:13;;;;;;;9.30;3.97;;;;;;;;;;5050392;28;20012;-66
2021/03/06 09:47:38;;;;;;;6.03;3.63;;;;;;;;;;5050743;28;20028;-66
2021/03/06 09:50:04;;;;;;;7.38;4.13;;;;;;;;;;5050593;28;20059;-66
2021/03/06 09:52:30;;;;;;;5.82;3.53;;;;;;;;;;5047118;28;20552;-66
2021/03/06 09:54:55;;;;;;;8.95;4.53;;;;;;;;;;5053531;28;20362;-66
2021/03/06 09:57:23;;;;;;;7.13;3.17;;;;;;;;;;5053225;28;20028;-66
2021/03/06 09:59:48;;;;;;;6.60;3.55;;;;;;;;;;5056828;28;20294;-67
2021/03/06 10:02:15;;;;;;;6.88;3.60;;;;;;;;;;5047377;28;20020;-67
2021/03/06 10:04:44;;;;;;;5.50;3.33;;;;;;;;;;5053036;28;20028;-67
2021/03/06 10:07:10;;;;;;;7.72;4.00;;;;;;;;;;5051612;28;20043;-67
2021/03/06 10:09:36;;;;;;;6.53;3.72;;;;;;;;;;5051674;28;20033;-67
2021/03/06 10:12:02;;;;;;;6.15;4.20;;;;;;;;;;5051826;28;20021;-67
2021/03/06 10:14:28;;;;;;;8.57;3.78;;;;;;;;;;5052553;28;20051;-67
2021/03/06 10:16:57;;;;;;;11.55;4.03;;;;;;;;;;5053102;28;20118;-67
2021/03/06 10:19:24;;;;;;;7.85;4.22;;;;;;;;;;5052976;28;20148;-67
2021/03/06 10:22:06;;;;;;;7.20;3.83;;;;;;;;;;5053442;28;20025;-67
2021/03/06 10:24:48;;;;;;;8.38;4.20;;;;;;;;;;5048109;28;20048;-67
2021/03/06 10:27:14;;;;;;;6.50;3.85;;;;;;;;;;5043932;28;20067;-67
2021/03/06 10:29:39;;;;;;;6.47;3.77;;;;;;;;;;5052736;28;20075;-67
2021/03/06 10:32:04;;;;;;;6.63;4.10;;;;;;;;;;5050891;28;20251;-67
2021/03/06 10:34:31;;;;;;;6.72;4.07;;;;;;;;;;5051417;28;20271;-67
2021/03/06 10:37:10;;;;;;;8.10;4.15;;;;;;;;;;5051904;28;20060;-67
2021/03/06 10:39:51;;;;;;;6.03;3.65;;;;;;;;;;5051551;28;20025;-67
2021/03/06 10:42:16;;;;;;;7.40;4.45;;;;;;;;;;5053019;28;20079;-67
2021/03/06 10:44:42;;;;;;;9.18;4.03;;;;;;;;;;5053126;28;20017;-67
2021/03/06 10:47:08;;;;;;;7.22;3.30;;;;;;;;;;5052393;28;20389;-67
2021/03/06 10:49:37;;;;;;;6.32;3.53;;;;;;;;;;5051352;28;20111;-67
2021/03/06 10:52:03;;;;;;;7.60;3.92;;;;;;;;;;5054472;28;20055;-67
2021/03/06 10:54:28;;;;;;;7.47;4.38;;;;;;;;;;5051824;28;20418;-67
2021/03/06 10:57:03;;;;;;;9.23;4.10;;;;;;;;;;5051575;28;20520;-66
2021/03/06 10:59:35;;;;;;;8.82;4.40;;;;;;;;;;5052533;28;20363;-66
2021/03/06 11:02:00;;;;;;;9.40;4.00;;;;;;;;;;5052707;28;20017;-67
2021/03/06 11:04:30;;;;;;;7.82;3.85;;;;;;;;;;5052589;28;20024;-67
2021/03/06 11:06:56;;;;;;;7.75;4.10;;;;;;;;;;5051479;28;20499;-67
2021/03/06 11:09:23;;;;;;;11.73;3.85;;;;;;;;;;5048368;28;20029;-67
2021/03/06 11:11:48;;;;;;;6.00;3.30;;;;;;;;;;5050792;28;20071;-67
2021/03/06 11:14:26;;;;;;;7.68;4.18;;;;;;;;;;5049795;28;20021;-66
2021/03/06 11:16:52;;;;;;;6.50;3.28;;;;;;;;;;5051432;28;20028;-67
2021/03/06 11:19:17;;;;;;;9.32;4.55;;;;;;;;;;5052036;28;20021;-66
2021/03/06 11:21:42;;;;;;;8.43;3.95;;;;;;;;;;5051612;28;20043;-66
2021/03/06 11:24:10;;;;;;;7.23;4.40;;;;;;;;;;5052472;28;20021;-66
2021/03/06 11:26:36;;;;;;;8.15;4.45;;;;;;;;;;5051734;28;20278;-66
2021/03/06 11:29:01;;;;;;;8.88;3.75;;;;;;;;;;5051870;28;20017;-66
2021/03/06 11:31:27;;;;;;;7.63;4.30;;;;;;;;;;5051254;28;20039;-66
2021/03/06 11:33:52;;;;;;;6.50;3.88;;;;;;;;;;5051841;28;20100;-67
2021/03/06 11:36:17;;;;;;;8.85;4.25;;;;;;;;;;5050807;28;20064;-66
2021/03/06 11:38:42;;;;;;;6.70;4.15;;;;;;;;;;5051729;28;20473;-67
2021/03/06 11:41:07;;;;;;;12.95;4.95;;;;;;;;;;5051160;28;20127;-66
2021/03/06 11:43:32;;;;;;;7.13;4.22;;;;;;;;;;5051361;28;20276;-66
2021/03/06 11:45:58;;;;;;;8.83;4.63;;;;;;;;;;5051107;28;20021;-66
2021/03/06 11:48:23;;;;;;;6.22;4.25;;;;;;;;;;5051086;28;20877;-66
2021/03/06 11:50:49;;;;;;;7.70;4.35;;;;;;;;;;5051247;28;20029;-66
2021/03/06 11:53:14;;;;;;;8.52;4.40;;;;;;;;;;5050143;28;20104;-65
2021/03/06 11:55:40;;;;;;;8.98;4.40;;;;;;;;;;5050660;28;20060;-66
2021/03/06 11:58:05;;;;;;;9.65;3.95;;;;;;;;;;5050559;28;20029;-66
2021/03/06 12:00:32;;;;;;;6.63;3.42;;;;;;;;;;5051321;28;20100;-66
2021/03/06 12:02:57;;;;;;;9.05;4.20;;;;;;;;;;5046548;28;20017;-66
2021/03/06 12:05:22;;;;;;;7.82;3.78;;;;;;;;;;5051189;28;20013;-66
2021/03/06 12:07:48;;;;;;;7.47;4.13;;;;;;;;;;5050631;28;20040;-66
2021/03/06 12:10:17;;;;;;;4.97;3.22;;;;;;;;;;5051423;28;20325;-67
2021/03/06 12:12:44;;;;;;;6.43;3.08;;;;;;;;;;5051148;28;20033;-67
2021/03/06 12:15:10;;;;;;;6.35;3.55;;;;;;;;;;5048785;28;20725;-67
2021/03/06 12:17:35;;;;;;;5.68;3.28;;;;;;;;;;5046222;28;20043;-66
2021/03/06 12:20:00;;;;;;;4.72;3.38;;;;;;;;;;5048033;28;20029;-67
2021/03/06 12:22:26;;;;;;;7.53;3.80;;;;;;;;;;5047765;28;20100;-66
2021/03/06 12:24:51;;;;;;;9.88;4.85;;;;;;;;;;5047756;28;20320;-67
2021/03/06 12:27:16;;;;;;;8.27;3.33;;;;;;;;;;5047710;28;20024;-67
2021/03/06 12:29:41;;;;;;;6.35;3.53;;;;;;;;;;5048140;28;20032;-67
2021/03/06 12:32:07;;;;;;;11.82;4.22;;;;;;;;;;5048171;28;20029;-67
2021/03/06 12:34:32;;;;;;;6.88;2.78;;;;;;;;;;5048961;28;20083;-68
2021/03/06 12:36:57;;;;;;;6.25;3.85;;;;;;;;;;5047315;28;20063;-67
2021/03/06 12:39:23;;;;;;;8.05;3.97;;;;;;;;;;5045581;28;20068;-67
2021/03/06 12:41:50;;;;;;;5.82;2.85;;;;;;;;;;5048009;28;20048;-67
2021/03/06 12:44:15;;;;;;;4.70;3.47;;;;;;;;;;5047501;28;20231;-67
2021/03/06 12:46:40;;;;;;;5.80;3.58;;;;;;;;;;5048290;28;20025;-67
2021/03/06 12:49:06;;;;;;;6.00;3.45;;;;;;;;;;5047272;28;20020;-67
2021/03/06 12:51:31;;;;;;;5.57;3.40;;;;;;;;;;5046988;28;20227;-67
2021/03/06 12:53:56;;;;;;;7.15;3.63;;;;;;;;;;5043006;28;20319;-67
2021/03/06 12:56:21;;;;;;;5.20;3.50;;;;;;;;;;5046131;28;20065;-67
2021/03/06 12:58:46;;;;;;;5.22;3.33;;;;;;;;;;5047626;28;20274;-67
2021/03/06 13:01:12;;;;;;;7.33;2.20;;;;;;;;;;5047073;28;20025;-67
2021/03/06 13:03:37;;;;;;;6.72;3.40;;;;;;;;;;5047591;28;20275;-67
2021/03/06 13:06:02;;;;;;;8.87;3.67;;;;;;;;;;5047778;28;20033;-67
2021/03/06 13:08:27;;;;;;;7.72;2.95;;;;;;;;;;5047231;28;21002;-67
2021/03/06 13:10:53;;;;;;;6.28;3.40;;;;;;;;;;5044486;28;20022;-67
2021/03/06 13:13:19;;;;;;;6.68;3.22;;;;;;;;;;5044470;28;20025;-67
2021/03/06 13:15:44;;;;;;;10.57;3.97;;;;;;;;;;5043151;28;20021;-67
2021/03/06 13:18:11;;;;;;;4.60;3.00;;;;;;;;;;5042189;28;20040;-67
2021/03/06 13:20:36;;;;;;;5.20;3.13;;;;;;;;;;5048228;28;20066;-67
2021/03/06 13:23:01;;;;;;;6.75;3.67;;;;;;;;;;5047172;28;20056;-68
2021/03/06 13:25:26;;;;;;;9.02;3.08;;;;;;;;;;5045841;28;20099;-67
2021/03/06 13:27:51;;;;;;;5.97;3.25;;;;;;;;;;5046817;28;20519;-67
2021/03/06 13:30:17;;;;;;;8.23;2.95;;;;;;;;;;5044975;28;20051;-68
2021/03/06 13:32:43;;;;;;;7.05;3.08;;;;;;;;;;5046692;28;20108;-67
2021/03/06 13:35:09;;;;;;;3.65;2.55;;;;;;;;;;5046351;28;20060;-67
2021/03/06 13:37:34;;;;;;;5.78;3.03;;;;;;;;;;5046661;28;20083;-67
2021/03/06 13:40:00;;;;;;;16.00;2.70;;;;;;;;;;5046970;28;20489;-68
2021/03/06 13:42:25;;;;;;;8.52;3.30;;;;;;;;;;5046810;28;20279;-68
2021/03/06 13:44:50;;;;;;;7.68;3.60;;;;;;;;;;5047540;28;20025;-68
2021/03/06 13:47:16;;;;;;;5.03;3.17;;;;;;;;;;5045796;28;20037;-67
2021/03/06 13:49:41;;;;;;;5.22;2.67;;;;;;;;;;5046182;28;20032;-67
2021/03/06 13:52:08;;;;;;;5.10;2.75;;;;;;;;;;5045772;28;20107;-68
2021/03/06 13:54:33;;;;;;;5.28;2.53;;;;;;;;;;5044498;28;20032;-68
2021/03/06 13:56:58;;;;;;;8.63;3.20;;;;;;;;;;5032251;28;20029;-68
2021/03/06 13:59:24;;;;;;;5.30;3.00;;;;;;;;;;5035030;28;20029;-68
2021/03/06 14:01:49;;;;;;;5.38;2.15;;;;;;;;;;5046614;28;20263;-68
2021/03/06 14:04:14;;;;;;;8.43;3.42;;;;;;;;;;5045631;28;20493;-68
2021/03/06 14:06:39;;;;;;;9.65;2.85;;;;;;;;;;5046420;28;20079;-67
2021/03/06 14:09:05;;;;;;;4.95;2.60;;;;;;;;;;5046866;28;20028;-67
2021/03/06 14:11:30;;;;;;;7.40;2.22;;;;;;;;;;5046305;28;20028;-67
2021/03/06 14:13:56;;;;;;;2.70;1.25;;;;;;;;;;5047055;28;20036;-67
2021/03/06 14:16:21;;;;;;;7.88;2.67;;;;;;;;;;5045608;28;20036;-67
2021/03/06 14:18:46;;;;;;;8.82;2.67;;;;;;;;;;5044784;28;20230;-67
2021/03/06 14:21:12;;;;;;;6.32;2.67;;;;;;;;;;5046045;28;20455;-67
2021/03/06 14:23:37;;;;;;;2.78;2.05;;;;;;;;;;5045003;28;20067;-67
2021/03/06 14:26:03;;;;;;;3.00;1.80;;;;;;;;;;5048039;28;20028;-67
2021/03/06 14:28:28;;;;;;;4.57;2.95;;;;;;;;;;5052965;28;20025;-67
2021/03/06 14:30:53;;;;;;;4.15;2.72;;;;;;;;;;5051045;28;20077;-67
2021/03/06 14:33:19;;;;;;;8.63;2.65;;;;;;;;;;5051394;28;20100;-67
2021/03/06 14:35:44;;;;;;;5.18;2.80;;;;;;;;;;5047290;28;20029;-67
2021/03/06 14:38:10;;;;;;;7.10;2.67;;;;;;;;;;5051059;28;20104;-67